sensor_id;sensor_type;location;lat;lon;timestamp;temperature;humidity
23359;DHT22;11851;50.796;4.372;2022-07-26T00:01:54;22.30;96.10
23359;DHT22;11851;50.796;4.372;2022-07-26T00:04:20;22.30;96.30
23359;DHT22;11851;50.796;4.372;2022-07-26T00:06:46;22.30;96.40
23359;DHT22;11851;50.796;4.372;2022-07-26T00:09:12;22.30;96.40
23359;DHT22;11851;50.796;4.372;2022-07-26T00:11:37;22.40;96.30
23359;DHT22;11851;50.796;4.372;2022-07-26T00:14:05;22.40;96.30
23359;DHT22;11851;50.796;4.372;2022-07-26T00:16:31;22.30;96.40
23359;DHT22;11851;50.796;4.372;2022-07-26T00:18:57;22.30;96.50
23359;DHT22;11851;50.796;4.372;2022-07-26T00:21:23;22.20;96.70
23359;DHT22;11851;50.796;4.372;2022-07-26T00:23:49;22.10;96.80
23359;DHT22;11851;50.796;4.372;2022-07-26T00:26:14;22.00;97.00
23359;DHT22;11851;50.796;4.372;2022-07-26T00:28:40;22.00;97.10
23359;DHT22;11851;50.796;4.372;2022-07-26T00:31:06;22.00;97.40
23359;DHT22;11851;50.796;4.372;2022-07-26T00:33:32;22.10;97.40
23359;DHT22;11851;50.796;4.372;2022-07-26T00:35:58;22.10;97.20
23359;DHT22;11851;50.796;4.372;2022-07-26T00:38:23;22.10;97.20
23359;DHT22;11851;50.796;4.372;2022-07-26T00:40:49;22.20;97.20
23359;DHT22;11851;50.796;4.372;2022-07-26T00:43:15;22.30;97.10
23359;DHT22;11851;50.796;4.372;2022-07-26T00:45:41;22.10;97.20
23359;DHT22;11851;50.796;4.372;2022-07-26T00:48:06;22.10;97.40
23359;DHT22;11851;50.796;4.372;2022-07-26T00:50:32;22.00;98.00
23359;DHT22;11851;50.796;4.372;2022-07-26T00:52:58;21.90;97.80
23359;DHT22;11851;50.796;4.372;2022-07-26T00:55:24;21.90;98.30
23359;DHT22;11851;50.796;4.372;2022-07-26T00:57:49;21.80;98.20
23359;DHT22;11851;50.796;4.372;2022-07-26T01:00:18;21.80;98.50
23359;DHT22;11851;50.796;4.372;2022-07-26T01:02:44;21.90;98.50
23359;DHT22;11851;50.796;4.372;2022-07-26T01:05:10;21.90;98.40
23359;DHT22;11851;50.796;4.372;2022-07-26T01:07:37;21.80;98.60
23359;DHT22;11851;50.796;4.372;2022-07-26T01:10:08;21.90;98.60
23359;DHT22;11851;50.796;4.372;2022-07-26T01:12:37;21.90;98.60
23359;DHT22;11851;50.796;4.372;2022-07-26T01:15:03;21.90;98.80
23359;DHT22;11851;50.796;4.372;2022-07-26T01:17:29;21.80;98.90
23359;DHT22;11851;50.796;4.372;2022-07-26T01:19:54;21.80;99.00
23359;DHT22;11851;50.796;4.372;2022-07-26T01:22:20;21.80;99.20
23359;DHT22;11851;50.796;4.372;2022-07-26T01:24:46;21.80;99.30
23359;DHT22;11851;50.796;4.372;2022-07-26T01:27:12;21.70;99.40
23359;DHT22;11851;50.796;4.372;2022-07-26T01:29:37;21.80;99.60
23359;DHT22;11851;50.796;4.372;2022-07-26T01:32:04;21.80;99.50
23359;DHT22;11851;50.796;4.372;2022-07-26T01:34:30;22.00;99.50
23359;DHT22;11851;50.796;4.372;2022-07-26T01:36:56;22.10;99.20
23359;DHT22;11851;50.796;4.372;2022-07-26T01:39:22;22.10;99.20
23359;DHT22;11851;50.796;4.372;2022-07-26T01:41:47;22.20;99.30
23359;DHT22;11851;50.796;4.372;2022-07-26T01:44:13;22.20;99.10
23359;DHT22;11851;50.796;4.372;2022-07-26T01:46:39;22.20;99.20
23359;DHT22;11851;50.796;4.372;2022-07-26T01:49:04;22.30;99.20
23359;DHT22;11851;50.796;4.372;2022-07-26T01:51:31;22.30;99.00
23359;DHT22;11851;50.796;4.372;2022-07-26T01:53:57;22.30;99.10
23359;DHT22;11851;50.796;4.372;2022-07-26T01:56:23;22.30;99.20
23359;DHT22;11851;50.796;4.372;2022-07-26T01:58:48;22.30;99.20
23359;DHT22;11851;50.796;4.372;2022-07-26T02:01:14;22.30;99.20
23359;DHT22;11851;50.796;4.372;2022-07-26T02:03:40;22.30;99.30
23359;DHT22;11851;50.796;4.372;2022-07-26T02:06:06;22.30;99.30
23359;DHT22;11851;50.796;4.372;2022-07-26T02:08:31;22.20;99.40
23359;DHT22;11851;50.796;4.372;2022-07-26T02:10:57;22.10;99.70
23359;DHT22;11851;50.796;4.372;2022-07-26T02:13:33;22.00;99.90
23359;DHT22;11851;50.796;4.372;2022-07-26T02:15:59;22.00;99.90
23359;DHT22;11851;50.796;4.372;2022-07-26T02:18:27;21.90;99.90
23359;DHT22;11851;50.796;4.372;2022-07-26T02:20:53;21.80;99.90
23359;DHT22;11851;50.796;4.372;2022-07-26T02:23:20;21.80;99.90
23359;DHT22;11851;50.796;4.372;2022-07-26T02:25:46;21.80;99.90
23359;DHT22;11851;50.796;4.372;2022-07-26T02:28:13;21.80;99.90
23359;DHT22;11851;50.796;4.372;2022-07-26T02:30:38;21.80;99.90
23359;DHT22;11851;50.796;4.372;2022-07-26T02:33:04;21.90;99.90
23359;DHT22;11851;50.796;4.372;2022-07-26T02:35:30;21.90;99.90
23359;DHT22;11851;50.796;4.372;2022-07-26T02:38:07;22.00;99.90
23359;DHT22;11851;50.796;4.372;2022-07-26T02:40:48;22.10;99.90
23359;DHT22;11851;50.796;4.372;2022-07-26T02:43:14;22.10;99.90
23359;DHT22;11851;50.796;4.372;2022-07-26T02:45:40;22.00;99.90
23359;DHT22;11851;50.796;4.372;2022-07-26T02:48:06;22.00;99.90
23359;DHT22;11851;50.796;4.372;2022-07-26T02:50:31;22.00;99.90
23359;DHT22;11851;50.796;4.372;2022-07-26T02:52:57;22.00;99.90
23359;DHT22;11851;50.796;4.372;2022-07-26T02:55:24;22.00;99.90
23359;DHT22;11851;50.796;4.372;2022-07-26T02:57:50;21.90;99.90
23359;DHT22;11851;50.796;4.372;2022-07-26T03:00:18;22.00;99.90
23359;DHT22;11851;50.796;4.372;2022-07-26T03:02:44;22.00;99.90
23359;DHT22;11851;50.796;4.372;2022-07-26T03:05:10;22.10;99.90
23359;DHT22;11851;50.796;4.372;2022-07-26T03:07:36;22.10;99.90
23359;DHT22;11851;50.796;4.372;2022-07-26T03:10:02;22.20;99.90
23359;DHT22;11851;50.796;4.372;2022-07-26T03:12:29;22.20;99.90
23359;DHT22;11851;50.796;4.372;2022-07-26T03:14:55;22.20;99.90
23359;DHT22;11851;50.796;4.372;2022-07-26T03:17:21;22.20;99.90
23359;DHT22;11851;50.796;4.372;2022-07-26T03:19:46;22.30;99.90
23359;DHT22;11851;50.796;4.372;2022-07-26T03:22:12;22.20;99.90
23359;DHT22;11851;50.796;4.372;2022-07-26T03:24:38;22.20;99.90
23359;DHT22;11851;50.796;4.372;2022-07-26T03:27:03;22.20;99.90
23359;DHT22;11851;50.796;4.372;2022-07-26T03:29:29;22.30;99.90
23359;DHT22;11851;50.796;4.372;2022-07-26T03:31:55;22.20;99.90
23359;DHT22;11851;50.796;4.372;2022-07-26T03:34:20;22.10;99.90
23359;DHT22;11851;50.796;4.372;2022-07-26T03:36:46;22.10;99.90
23359;DHT22;11851;50.796;4.372;2022-07-26T03:39:12;22.10;99.90
23359;DHT22;11851;50.796;4.372;2022-07-26T03:41:37;22.20;99.90
23359;DHT22;11851;50.796;4.372;2022-07-26T03:44:03;22.20;99.90
23359;DHT22;11851;50.796;4.372;2022-07-26T03:46:29;22.20;99.90
23359;DHT22;11851;50.796;4.372;2022-07-26T03:48:55;22.30;99.90
23359;DHT22;11851;50.796;4.372;2022-07-26T03:51:20;22.30;99.90
23359;DHT22;11851;50.796;4.372;2022-07-26T03:53:46;22.40;99.90
23359;DHT22;11851;50.796;4.372;2022-07-26T03:56:12;22.50;99.90
23359;DHT22;11851;50.796;4.372;2022-07-26T03:59:09;22.50;99.90
23359;DHT22;11851;50.796;4.372;2022-07-26T04:01:37;22.50;99.90
23359;DHT22;11851;50.796;4.372;2022-07-26T04:04:10;22.50;99.90
23359;DHT22;11851;50.796;4.372;2022-07-26T04:06:37;22.60;99.90
23359;DHT22;11851;50.796;4.372;2022-07-26T04:09:04;22.80;99.90
23359;DHT22;11851;50.796;4.372;2022-07-26T04:11:30;22.90;99.90
23359;DHT22;11851;50.796;4.372;2022-07-26T04:13:56;23.00;99.90
23359;DHT22;11851;50.796;4.372;2022-07-26T04:16:22;23.00;99.90
23359;DHT22;11851;50.796;4.372;2022-07-26T04:18:48;22.90;99.90
23359;DHT22;11851;50.796;4.372;2022-07-26T04:21:13;22.80;99.90
23359;DHT22;11851;50.796;4.372;2022-07-26T04:23:39;22.80;99.90
23359;DHT22;11851;50.796;4.372;2022-07-26T04:26:05;22.70;99.90
23359;DHT22;11851;50.796;4.372;2022-07-26T04:28:31;22.70;99.90
23359;DHT22;11851;50.796;4.372;2022-07-26T04:30:58;22.60;99.90
23359;DHT22;11851;50.796;4.372;2022-07-26T04:33:24;22.50;99.90
23359;DHT22;11851;50.796;4.372;2022-07-26T04:35:50;22.50;99.90
23359;DHT22;11851;50.796;4.372;2022-07-26T04:38:16;22.50;99.90
23359;DHT22;11851;50.796;4.372;2022-07-26T04:40:42;22.50;99.90
23359;DHT22;11851;50.796;4.372;2022-07-26T04:43:08;22.50;99.90
23359;DHT22;11851;50.796;4.372;2022-07-26T04:45:34;22.50;99.90
23359;DHT22;11851;50.796;4.372;2022-07-26T04:48:00;22.60;99.90
23359;DHT22;11851;50.796;4.372;2022-07-26T04:50:25;22.50;99.90
23359;DHT22;11851;50.796;4.372;2022-07-26T04:52:53;22.60;99.90
23359;DHT22;11851;50.796;4.372;2022-07-26T04:55:19;22.50;99.90
23359;DHT22;11851;50.796;4.372;2022-07-26T04:57:45;22.50;99.90
23359;DHT22;11851;50.796;4.372;2022-07-26T05:00:13;22.50;99.90
23359;DHT22;11851;50.796;4.372;2022-07-26T05:02:39;22.60;99.90
23359;DHT22;11851;50.796;4.372;2022-07-26T05:05:06;22.60;99.90
23359;DHT22;11851;50.796;4.372;2022-07-26T05:07:41;22.60;99.90
23359;DHT22;11851;50.796;4.372;2022-07-26T05:10:08;22.70;99.90
23359;DHT22;11851;50.796;4.372;2022-07-26T05:12:34;22.90;99.90
23359;DHT22;11851;50.796;4.372;2022-07-26T05:14:59;22.80;99.90
23359;DHT22;11851;50.796;4.372;2022-07-26T05:17:25;22.70;99.90
23359;DHT22;11851;50.796;4.372;2022-07-26T05:19:51;22.60;99.90
23359;DHT22;11851;50.796;4.372;2022-07-26T05:22:17;22.40;99.90
23359;DHT22;11851;50.796;4.372;2022-07-26T05:24:42;22.20;99.90
23359;DHT22;11851;50.796;4.372;2022-07-26T05:27:08;22.00;99.90
23359;DHT22;11851;50.796;4.372;2022-07-26T05:29:33;21.80;99.90
23359;DHT22;11851;50.796;4.372;2022-07-26T05:31:59;21.60;99.90
23359;DHT22;11851;50.796;4.372;2022-07-26T05:34:25;21.50;99.90
23359;DHT22;11851;50.796;4.372;2022-07-26T05:36:50;21.50;99.90
23359;DHT22;11851;50.796;4.372;2022-07-26T05:39:16;21.30;99.90
23359;DHT22;11851;50.796;4.372;2022-07-26T05:41:42;21.10;99.90
23359;DHT22;11851;50.796;4.372;2022-07-26T05:44:07;21.10;99.90
23359;DHT22;11851;50.796;4.372;2022-07-26T05:46:35;21.10;99.90
23359;DHT22;11851;50.796;4.372;2022-07-26T05:49:03;21.10;99.90
23359;DHT22;11851;50.796;4.372;2022-07-26T05:51:29;21.10;99.90
23359;DHT22;11851;50.796;4.372;2022-07-26T05:53:55;21.00;99.90
23359;DHT22;11851;50.796;4.372;2022-07-26T05:56:20;20.90;99.90
23359;DHT22;11851;50.796;4.372;2022-07-26T05:58:46;20.90;99.90
23359;DHT22;11851;50.796;4.372;2022-07-26T06:01:12;20.80;99.90
23359;DHT22;11851;50.796;4.372;2022-07-26T06:03:38;20.80;99.90
23359;DHT22;11851;50.796;4.372;2022-07-26T06:06:04;20.80;99.90
23359;DHT22;11851;50.796;4.372;2022-07-26T06:08:29;20.80;99.90
23359;DHT22;11851;50.796;4.372;2022-07-26T06:10:55;20.70;99.90
23359;DHT22;11851;50.796;4.372;2022-07-26T06:13:21;20.60;99.90
23359;DHT22;11851;50.796;4.372;2022-07-26T06:15:47;20.50;99.90
23359;DHT22;11851;50.796;4.372;2022-07-26T06:18:13;20.40;99.90
23359;DHT22;11851;50.796;4.372;2022-07-26T06:20:41;20.40;99.90
23359;DHT22;11851;50.796;4.372;2022-07-26T06:23:07;20.40;99.90
23359;DHT22;11851;50.796;4.372;2022-07-26T06:25:33;20.40;99.90
23359;DHT22;11851;50.796;4.372;2022-07-26T06:28:01;20.30;99.90
23359;DHT22;11851;50.796;4.372;2022-07-26T06:30:27;20.20;99.90
23359;DHT22;11851;50.796;4.372;2022-07-26T06:32:53;20.20;99.90
23359;DHT22;11851;50.796;4.372;2022-07-26T06:35:19;20.40;99.90
23359;DHT22;11851;50.796;4.372;2022-07-26T06:37:44;20.30;99.90
23359;DHT22;11851;50.796;4.372;2022-07-26T06:40:10;20.30;99.90
23359;DHT22;11851;50.796;4.372;2022-07-26T06:42:36;20.40;99.90
23359;DHT22;11851;50.796;4.372;2022-07-26T06:45:03;20.30;99.90
23359;DHT22;11851;50.796;4.372;2022-07-26T06:47:29;20.40;99.90
23359;DHT22;11851;50.796;4.372;2022-07-26T06:49:55;20.40;99.90
23359;DHT22;11851;50.796;4.372;2022-07-26T06:52:20;20.50;99.90
23359;DHT22;11851;50.796;4.372;2022-07-26T06:54:46;20.40;99.90
23359;DHT22;11851;50.796;4.372;2022-07-26T06:57:12;20.50;99.90
23359;DHT22;11851;50.796;4.372;2022-07-26T06:59:37;20.50;99.90
23359;DHT22;11851;50.796;4.372;2022-07-26T07:02:03;20.40;99.90
23359;DHT22;11851;50.796;4.372;2022-07-26T07:04:31;20.30;99.90
23359;DHT22;11851;50.796;4.372;2022-07-26T07:06:57;20.20;99.90
23359;DHT22;11851;50.796;4.372;2022-07-26T07:09:27;20.30;99.90
23359;DHT22;11851;50.796;4.372;2022-07-26T07:11:53;20.40;99.90
23359;DHT22;11851;50.796;4.372;2022-07-26T07:14:19;20.50;99.90
23359;DHT22;11851;50.796;4.372;2022-07-26T07:16:45;20.40;99.90
23359;DHT22;11851;50.796;4.372;2022-07-26T07:19:10;20.50;99.90
23359;DHT22;11851;50.796;4.372;2022-07-26T07:21:36;20.30;99.90
23359;DHT22;11851;50.796;4.372;2022-07-26T07:24:02;20.00;99.90
23359;DHT22;11851;50.796;4.372;2022-07-26T07:26:28;20.10;99.90
23359;DHT22;11851;50.796;4.372;2022-07-26T07:28:53;20.00;99.90
23359;DHT22;11851;50.796;4.372;2022-07-26T07:31:19;20.30;99.90
23359;DHT22;11851;50.796;4.372;2022-07-26T07:33:45;20.10;99.90
23359;DHT22;11851;50.796;4.372;2022-07-26T07:36:10;20.10;99.90
23359;DHT22;11851;50.796;4.372;2022-07-26T07:38:36;20.30;99.90
23359;DHT22;11851;50.796;4.372;2022-07-26T07:41:01;20.40;99.90
23359;DHT22;11851;50.796;4.372;2022-07-26T07:43:27;20.40;99.90
23359;DHT22;11851;50.796;4.372;2022-07-26T07:45:53;20.50;99.90
23359;DHT22;11851;50.796;4.372;2022-07-26T07:48:18;20.70;99.90
23359;DHT22;11851;50.796;4.372;2022-07-26T07:50:44;20.70;99.90
23359;DHT22;11851;50.796;4.372;2022-07-26T07:53:10;20.60;99.90
23359;DHT22;11851;50.796;4.372;2022-07-26T07:55:35;20.60;99.90
23359;DHT22;11851;50.796;4.372;2022-07-26T07:58:01;20.60;99.90
23359;DHT22;11851;50.796;4.372;2022-07-26T08:00:26;20.60;99.90
23359;DHT22;11851;50.796;4.372;2022-07-26T08:02:52;20.60;99.90
23359;DHT22;11851;50.796;4.372;2022-07-26T08:05:18;20.30;99.90
23359;DHT22;11851;50.796;4.372;2022-07-26T08:07:44;20.20;99.90
23359;DHT22;11851;50.796;4.372;2022-07-26T08:10:09;20.30;99.90
23359;DHT22;11851;50.796;4.372;2022-07-26T08:12:35;20.40;99.90
23359;DHT22;11851;50.796;4.372;2022-07-26T08:15:02;20.20;99.90
23359;DHT22;11851;50.796;4.372;2022-07-26T08:17:28;20.20;99.90
23359;DHT22;11851;50.796;4.372;2022-07-26T08:19:53;20.20;99.90
23359;DHT22;11851;50.796;4.372;2022-07-26T08:22:19;20.30;99.90
23359;DHT22;11851;50.796;4.372;2022-07-26T08:24:44;20.30;99.90
23359;DHT22;11851;50.796;4.372;2022-07-26T08:27:12;20.10;99.90
23359;DHT22;11851;50.796;4.372;2022-07-26T08:29:37;20.30;99.90
23359;DHT22;11851;50.796;4.372;2022-07-26T08:32:03;20.50;99.90
23359;DHT22;11851;50.796;4.372;2022-07-26T08:34:29;20.60;99.90
23359;DHT22;11851;50.796;4.372;2022-07-26T08:36:55;20.70;99.90
23359;DHT22;11851;50.796;4.372;2022-07-26T08:39:21;20.70;99.90
23359;DHT22;11851;50.796;4.372;2022-07-26T08:41:46;20.80;99.90
23359;DHT22;11851;50.796;4.372;2022-07-26T08:44:12;20.80;99.90
23359;DHT22;11851;50.796;4.372;2022-07-26T08:46:41;21.00;99.90
23359;DHT22;11851;50.796;4.372;2022-07-26T08:49:08;21.10;99.90
23359;DHT22;11851;50.796;4.372;2022-07-26T08:51:39;21.20;99.90
23359;DHT22;11851;50.796;4.372;2022-07-26T08:54:07;21.20;99.90
23359;DHT22;11851;50.796;4.372;2022-07-26T08:56:35;21.30;99.90
23359;DHT22;11851;50.796;4.372;2022-07-26T08:59:15;21.30;99.90
23359;DHT22;11851;50.796;4.372;2022-07-26T09:01:56;21.10;99.90
23359;DHT22;11851;50.796;4.372;2022-07-26T09:04:29;21.30;99.90
23359;DHT22;11851;50.796;4.372;2022-07-26T09:09:27;21.30;99.90
23359;DHT22;11851;50.796;4.372;2022-07-26T09:11:54;21.20;99.90
23359;DHT22;11851;50.796;4.372;2022-07-26T09:14:21;21.30;99.90
23359;DHT22;11851;50.796;4.372;2022-07-26T09:16:57;21.30;99.90
23359;DHT22;11851;50.796;4.372;2022-07-26T09:19:24;21.20;99.90
23359;DHT22;11851;50.796;4.372;2022-07-26T09:21:50;21.30;99.90
23359;DHT22;11851;50.796;4.372;2022-07-26T09:24:36;21.50;99.90
23359;DHT22;11851;50.796;4.372;2022-07-26T09:27:05;21.70;99.90
23359;DHT22;11851;50.796;4.372;2022-07-26T09:29:48;21.90;99.90
23359;DHT22;11851;50.796;4.372;2022-07-26T09:32:18;21.80;99.90
23359;DHT22;11851;50.796;4.372;2022-07-26T09:34:52;21.60;99.90
23359;DHT22;11851;50.796;4.372;2022-07-26T09:37:31;21.60;99.90
23359;DHT22;11851;50.796;4.372;2022-07-26T09:39:59;21.80;99.90
23359;DHT22;11851;50.796;4.372;2022-07-26T09:42:26;22.00;99.90
23359;DHT22;11851;50.796;4.372;2022-07-26T09:44:53;22.00;99.90
23359;DHT22;11851;50.796;4.372;2022-07-26T09:47:19;22.10;99.90
23359;DHT22;11851;50.796;4.372;2022-07-26T09:49:45;22.20;99.90
23359;DHT22;11851;50.796;4.372;2022-07-26T09:54:41;22.50;99.90
23359;DHT22;11851;50.796;4.372;2022-07-26T09:57:10;22.60;99.90
23359;DHT22;11851;50.796;4.372;2022-07-26T09:59:36;22.60;99.90
23359;DHT22;11851;50.796;4.372;2022-07-26T10:02:02;22.50;99.90
23359;DHT22;11851;50.796;4.372;2022-07-26T10:04:27;22.30;99.90
23359;DHT22;11851;50.796;4.372;2022-07-26T10:06:54;22.30;99.90
23359;DHT22;11851;50.796;4.372;2022-07-26T10:09:22;22.30;99.90
23359;DHT22;11851;50.796;4.372;2022-07-26T10:11:55;22.30;99.90
23359;DHT22;11851;50.796;4.372;2022-07-26T10:20:04;22.30;99.90
23359;DHT22;11851;50.796;4.372;2022-07-26T10:22:32;22.50;99.90
23359;DHT22;11851;50.796;4.372;2022-07-26T10:27:45;22.70;98.80
23359;DHT22;11851;50.796;4.372;2022-07-26T10:33:01;23.00;97.90
23359;DHT22;11851;50.796;4.372;2022-07-26T10:41:01;23.00;97.40
23359;DHT22;11851;50.796;4.372;2022-07-26T10:43:27;23.10;97.30
23359;DHT22;11851;50.796;4.372;2022-07-26T10:48:55;23.30;96.70
23359;DHT22;11851;50.796;4.372;2022-07-26T10:51:27;23.40;96.30
23359;DHT22;11851;50.796;4.372;2022-07-26T10:54:08;23.60;96.10
23359;DHT22;11851;50.796;4.372;2022-07-26T10:56:34;23.80;95.30
23359;DHT22;11851;50.796;4.372;2022-07-26T10:59:02;23.90;95.00
23359;DHT22;11851;50.796;4.372;2022-07-26T11:01:39;24.00;94.70
23359;DHT22;11851;50.796;4.372;2022-07-26T11:04:06;24.00;94.60
23359;DHT22;11851;50.796;4.372;2022-07-26T11:06:41;23.90;94.20
23359;DHT22;11851;50.796;4.372;2022-07-26T11:09:10;23.70;94.80
23359;DHT22;11851;50.796;4.372;2022-07-26T11:11:37;23.60;95.10
23359;DHT22;11851;50.796;4.372;2022-07-26T11:14:08;23.70;95.00
23359;DHT22;11851;50.796;4.372;2022-07-26T11:16:42;23.50;94.70
23359;DHT22;11851;50.796;4.372;2022-07-26T11:19:20;23.70;95.10
23359;DHT22;11851;50.796;4.372;2022-07-26T11:21:55;23.60;94.60
23359;DHT22;11851;50.796;4.372;2022-07-26T11:24:20;23.70;94.80
23359;DHT22;11851;50.796;4.372;2022-07-26T11:26:46;23.80;94.40
23359;DHT22;11851;50.796;4.372;2022-07-26T11:29:12;23.90;93.20
23359;DHT22;11851;50.796;4.372;2022-07-26T11:31:46;24.00;93.00
23359;DHT22;11851;50.796;4.372;2022-07-26T11:34:17;24.10;92.60
23359;DHT22;11851;50.796;4.372;2022-07-26T11:36:44;24.20;92.80
23359;DHT22;11851;50.796;4.372;2022-07-26T11:39:47;24.30;94.00
23359;DHT22;11851;50.796;4.372;2022-07-26T11:42:08;24.30;94.10
23359;DHT22;11851;50.796;4.372;2022-07-26T11:44:34;24.30;94.50
23359;DHT22;11851;50.796;4.372;2022-07-26T11:47:10;24.30;94.90
23359;DHT22;11851;50.796;4.372;2022-07-26T11:49:37;24.40;95.30
23359;DHT22;11851;50.796;4.372;2022-07-26T11:52:03;24.40;95.20
23359;DHT22;11851;50.796;4.372;2022-07-26T11:54:43;24.40;95.00
23359;DHT22;11851;50.796;4.372;2022-07-26T11:57:09;24.40;95.10
23359;DHT22;11851;50.796;4.372;2022-07-26T11:59:36;24.40;94.80
23359;DHT22;11851;50.796;4.372;2022-07-26T12:02:04;24.10;95.10
23359;DHT22;11851;50.796;4.372;2022-07-26T12:05:07;24.20;95.20
23359;DHT22;11851;50.796;4.372;2022-07-26T12:07:21;24.20;95.20
23359;DHT22;11851;50.796;4.372;2022-07-26T12:09:49;24.30;94.80
23359;DHT22;11851;50.796;4.372;2022-07-26T12:12:26;24.50;94.60
23359;DHT22;11851;50.796;4.372;2022-07-26T12:15:05;24.70;94.40
23359;DHT22;11851;50.796;4.372;2022-07-26T12:17:31;24.80;93.40
23359;DHT22;11851;50.796;4.372;2022-07-26T12:20:15;24.60;92.70
23359;DHT22;11851;50.796;4.372;2022-07-26T12:22:52;24.60;93.30
23359;DHT22;11851;50.796;4.372;2022-07-26T12:25:25;24.80;93.60
23359;DHT22;11851;50.796;4.372;2022-07-26T12:27:51;24.80;94.50
23359;DHT22;11851;50.796;4.372;2022-07-26T12:30:17;24.80;95.10
23359;DHT22;11851;50.796;4.372;2022-07-26T12:32:45;24.60;95.30
23359;DHT22;11851;50.796;4.372;2022-07-26T12:35:15;24.60;95.70
23359;DHT22;11851;50.796;4.372;2022-07-26T12:40:11;24.10;95.80
23359;DHT22;11851;50.796;4.372;2022-07-26T12:42:39;24.10;96.10
23359;DHT22;11851;50.796;4.372;2022-07-26T12:45:08;24.10;96.30
23359;DHT22;11851;50.796;4.372;2022-07-26T12:47:35;24.10;96.30
23359;DHT22;11851;50.796;4.372;2022-07-26T12:50:06;23.90;96.40
23359;DHT22;11851;50.796;4.372;2022-07-26T12:52:33;23.80;96.80
23359;DHT22;11851;50.796;4.372;2022-07-26T12:54:59;23.90;97.10
23359;DHT22;11851;50.796;4.372;2022-07-26T12:57:25;24.00;97.00
23359;DHT22;11851;50.796;4.372;2022-07-26T12:59:52;24.20;96.80
23359;DHT22;11851;50.796;4.372;2022-07-26T13:02:19;24.40;96.30
23359;DHT22;11851;50.796;4.372;2022-07-26T13:04:45;24.60;96.00
23359;DHT22;11851;50.796;4.372;2022-07-26T13:07:11;24.80;95.50
23359;DHT22;11851;50.796;4.372;2022-07-26T13:09:37;24.80;95.10
23359;DHT22;11851;50.796;4.372;2022-07-26T13:12:04;24.90;94.70
23359;DHT22;11851;50.796;4.372;2022-07-26T13:14:34;24.80;94.00
23359;DHT22;11851;50.796;4.372;2022-07-26T13:17:00;24.70;94.30
23359;DHT22;11851;50.796;4.372;2022-07-26T13:19:27;24.50;94.40
23359;DHT22;11851;50.796;4.372;2022-07-26T13:21:54;24.40;94.40
23359;DHT22;11851;50.796;4.372;2022-07-26T13:24:19;24.30;94.60
23359;DHT22;11851;50.796;4.372;2022-07-26T13:26:45;24.40;94.50
23359;DHT22;11851;50.796;4.372;2022-07-26T13:29:11;24.30;94.70
23359;DHT22;11851;50.796;4.372;2022-07-26T13:31:36;24.30;94.80
23359;DHT22;11851;50.796;4.372;2022-07-26T13:34:03;24.20;95.30
23359;DHT22;11851;50.796;4.372;2022-07-26T13:36:29;24.00;95.40
23359;DHT22;11851;50.796;4.372;2022-07-26T13:38:55;24.00;95.50
23359;DHT22;11851;50.796;4.372;2022-07-26T13:41:21;23.90;95.30
23359;DHT22;11851;50.796;4.372;2022-07-26T13:43:47;24.00;95.50
23359;DHT22;11851;50.796;4.372;2022-07-26T13:46:12;24.10;94.80
23359;DHT22;11851;50.796;4.372;2022-07-26T13:48:38;24.20;94.60
23359;DHT22;11851;50.796;4.372;2022-07-26T13:51:04;24.20;94.40
23359;DHT22;11851;50.796;4.372;2022-07-26T13:53:30;24.30;94.10
23359;DHT22;11851;50.796;4.372;2022-07-26T13:55:55;24.30;94.70
23359;DHT22;11851;50.796;4.372;2022-07-26T13:58:21;24.20;95.00
23359;DHT22;11851;50.796;4.372;2022-07-26T14:00:47;24.10;94.80
23359;DHT22;11851;50.796;4.372;2022-07-26T14:03:13;24.10;94.90
23359;DHT22;11851;50.796;4.372;2022-07-26T14:05:39;24.00;94.70
23359;DHT22;11851;50.796;4.372;2022-07-26T14:08:05;23.90;94.90
23359;DHT22;11851;50.796;4.372;2022-07-26T14:10:31;23.90;94.90
23359;DHT22;11851;50.796;4.372;2022-07-26T14:12:57;23.90;95.60
23359;DHT22;11851;50.796;4.372;2022-07-26T14:15:23;24.00;95.90
23359;DHT22;11851;50.796;4.372;2022-07-26T14:17:52;24.30;95.80
23359;DHT22;11851;50.796;4.372;2022-07-26T14:20:17;24.40;95.40
23359;DHT22;11851;50.796;4.372;2022-07-26T14:22:43;24.50;95.30
23359;DHT22;11851;50.796;4.372;2022-07-26T14:25:09;24.50;94.80
23359;DHT22;11851;50.796;4.372;2022-07-26T14:27:35;24.50;94.60
23359;DHT22;11851;50.796;4.372;2022-07-26T14:30:01;24.50;94.30
23359;DHT22;11851;50.796;4.372;2022-07-26T14:32:26;24.60;94.50
23359;DHT22;11851;50.796;4.372;2022-07-26T14:34:52;24.60;93.90
23359;DHT22;11851;50.796;4.372;2022-07-26T14:37:17;24.60;93.30
23359;DHT22;11851;50.796;4.372;2022-07-26T14:39:43;24.60;93.10
23359;DHT22;11851;50.796;4.372;2022-07-26T14:42:09;24.60;92.90
23359;DHT22;11851;50.796;4.372;2022-07-26T14:44:34;24.40;93.00
23359;DHT22;11851;50.796;4.372;2022-07-26T14:47:00;24.30;93.30
23359;DHT22;11851;50.796;4.372;2022-07-26T14:49:25;24.30;93.60
23359;DHT22;11851;50.796;4.372;2022-07-26T14:51:51;24.50;93.80
23359;DHT22;11851;50.796;4.372;2022-07-26T14:54:19;25.00;93.20
23359;DHT22;11851;50.796;4.372;2022-07-26T14:56:45;25.20;92.60
23359;DHT22;11851;50.796;4.372;2022-07-26T14:59:10;25.60;92.20
23359;DHT22;11851;50.796;4.372;2022-07-26T15:01:36;26.40;91.50
23359;DHT22;11851;50.796;4.372;2022-07-26T15:04:03;26.90;90.30
23359;DHT22;11851;50.796;4.372;2022-07-26T15:06:29;27.10;88.90
23359;DHT22;11851;50.796;4.372;2022-07-26T15:08:55;27.30;88.10
23359;DHT22;11851;50.796;4.372;2022-07-26T15:11:20;27.80;86.90
23359;DHT22;11851;50.796;4.372;2022-07-26T15:13:46;28.20;85.60
23359;DHT22;11851;50.796;4.372;2022-07-26T15:16:11;28.50;85.10
23359;DHT22;11851;50.796;4.372;2022-07-26T15:18:37;29.90;82.50
23359;DHT22;11851;50.796;4.372;2022-07-26T15:21:03;31.20;79.40
23359;DHT22;11851;50.796;4.372;2022-07-26T15:23:28;32.10;76.60
23359;DHT22;11851;50.796;4.372;2022-07-26T15:25:54;33.30;73.80
23359;DHT22;11851;50.796;4.372;2022-07-26T15:28:20;33.50;71.30
23359;DHT22;11851;50.796;4.372;2022-07-26T15:30:45;33.20;70.90
23359;DHT22;11851;50.796;4.372;2022-07-26T15:33:11;32.80;71.50
23359;DHT22;11851;50.796;4.372;2022-07-26T15:35:39;32.30;71.00
23359;DHT22;11851;50.796;4.372;2022-07-26T15:38:05;31.80;72.30
23359;DHT22;11851;50.796;4.372;2022-07-26T15:40:30;31.60;73.70
23359;DHT22;11851;50.796;4.372;2022-07-26T15:42:56;31.20;73.90
23359;DHT22;11851;50.796;4.372;2022-07-26T15:45:22;30.80;75.20
23359;DHT22;11851;50.796;4.372;2022-07-26T15:47:47;30.40;76.00
23359;DHT22;11851;50.796;4.372;2022-07-26T15:50:15;30.10;76.20
23359;DHT22;11851;50.796;4.372;2022-07-26T15:52:43;30.30;75.30
23359;DHT22;11851;50.796;4.372;2022-07-26T15:55:10;31.10;72.80
23359;DHT22;11851;50.796;4.372;2022-07-26T15:57:37;31.90;70.00